Time;durP1;ratioP1;P1;durP2;ratioP2;P2;SDS_P1;SDS_P2;PMS_P1;PMS_P2;Temp;Humidity;BMP_temperature;BMP_pressure;BME280_temperature;BME280_humidity;BME280_pressure;Samples;Min_cycle;Max_cycle;Signal;HPM_P1;HPM_P2
2022/05/25 00:01:37;;;;;;;8.48;3.35;;;;;;;14.08;57.83;101182.53;5155872;28;20432;-49
2022/05/25 00:04:11;;;;;;;12.52;3.78;;;;;;;14.01;57.90;101175.41;5157102;28;20757;-48
2022/05/25 00:06:44;;;;;;;5.88;3.30;;;;;;;13.93;57.91;101167.41;5154459;28;20434;-45
2022/05/25 00:09:17;;;;;;;12.48;3.45;;;;;;;14.07;57.93;101186.19;5158375;28;20523;-48
2022/05/25 00:11:51;;;;;;;8.33;3.33;;;;;;;13.96;58.12;101172.41;5152955;28;20424;-48
2022/05/25 00:14:24;;;;;;;6.87;3.23;;;;;;;14.03;58.17;101189.34;5155267;28;20441;-49
2022/05/25 00:16:56;;;;;;;9.23;3.70;;;;;;;13.97;58.08;101185.53;5154468;28;20505;-48
2022/05/25 00:22:19;;;;;;;7.30;3.37;;;;;;;13.96;58.08;101196.28;5142908;28;20408;-48
2022/05/25 00:24:51;;;;;;;10.25;3.15;;;;;;;13.96;58.28;101193.63;5154880;28;20887;-50
2022/05/25 00:27:34;;;;;;;7.95;2.70;;;;;;;13.92;58.26;101192.31;5156027;28;20416;-49
2022/05/25 00:30:08;;;;;;;6.10;2.70;;;;;;;13.92;58.21;101194.97;5155504;28;20504;-45
2022/05/25 00:32:41;;;;;;;7.07;2.78;;;;;;;13.75;58.22;101181.66;5130930;28;20919;-46
2022/05/25 00:35:18;;;;;;;7.18;3.40;;;;;;;13.85;58.32;101200.09;5153945;28;20452;-46
2022/05/25 00:37:51;;;;;;;10.88;3.30;;;;;;;13.88;58.27;101201.59;5158710;28;20429;-45
2022/05/25 00:40:27;;;;;;;12.35;3.47;;;;;;;13.67;58.29;101171.03;5156392;28;20436;-48
2022/05/25 00:43:01;;;;;;;8.93;3.50;;;;;;;13.82;58.38;101197.78;5145790;28;20737;-46
2022/05/25 00:45:38;;;;;;;9.50;3.60;;;;;;;13.84;58.31;101201.06;5155988;28;20429;-48
2022/05/25 00:48:17;;;;;;;7.60;3.35;;;;;;;13.83;58.35;101207.38;5155587;28;20952;-46
2022/05/25 00:53:41;;;;;;;10.45;3.63;;;;;;;13.74;58.44;101211.84;5147204;28;20523;-46
2022/05/25 00:56:18;;;;;;;7.70;3.38;;;;;;;13.78;58.45;101217.66;5156609;28;20536;-48
2022/05/25 00:58:58;;;;;;;7.15;2.75;;;;;;;13.73;58.32;101215.50;5154904;28;20503;-46
2022/05/25 01:01:33;;;;;;;5.85;3.25;;;;;;;13.64;58.22;101205.00;5136407;28;26522;-48
2022/05/25 01:04:10;;;;;;;7.35;3.13;;;;;;;13.64;58.43;101211.16;5159163;28;20443;-47
2022/05/25 01:06:58;;;;;;;9.60;3.33;;;;;;;13.49;58.46;101188.88;5154213;28;20436;-51
2022/05/25 01:09:41;;;;;;;6.03;3.22;;;;;;;13.56;58.58;101203.16;5152976;28;20425;-46
2022/05/25 01:12:30;;;;;;;7.40;3.00;;;;;;;13.63;58.57;101217.47;5156323;28;20427;-46
2022/05/25 01:15:16;;;;;;;6.28;2.80;;;;;;;13.59;58.66;101203.69;5152657;28;20525;-45
2022/05/25 01:18:07;;;;;;;5.28;2.65;;;;;;;13.41;58.79;101183.53;5154409;28;20421;-48
2022/05/25 01:20:44;;;;;;;7.15;3.05;;;;;;;13.51;58.75;101200.16;5130683;28;20895;-45
2022/05/25 01:23:54;;;;;;;7.25;3.40;;;;;;;13.50;58.72;101207.28;5149707;28;20506;-46
2022/05/25 01:27:21;;;;;;;10.68;3.38;;;;;;;13.53;58.96;101219.38;5153782;28;20427;-46
2022/05/25 01:30:09;;;;;;;6.72;3.22;;;;;;;13.44;58.89;101210.59;5155033;28;20508;-46
2022/05/25 01:33:12;;;;;;;4.05;2.85;;;;;;;13.43;59.00;101208.09;5157964;28;20797;-49
2022/05/25 01:35:56;;;;;;;4.87;2.77;;;;;;;13.46;59.11;101244.91;5155920;28;20553;-48
2022/05/25 01:38:41;;;;;;;11.57;3.00;;;;;;;13.48;59.06;101232.31;5152664;28;20524;-48
2022/05/25 01:41:20;;;;;;;5.30;2.72;;;;;;;13.39;59.08;101210.22;5154924;28;20527;-44
2022/05/25 01:43:57;;;;;;;5.32;2.90;;;;;;;13.37;59.13;101212.19;5156665;28;20436;-46
2022/05/25 01:46:38;;;;;;;9.55;2.85;;;;;;;13.35;59.39;101215.03;5115806;28;20412;-46
2022/05/25 01:49:16;;;;;;;7.70;2.33;;;;;;;13.42;59.19;101227.66;5142056;28;20433;-47
2022/05/25 01:51:50;;;;;;;5.78;2.70;;;;;;;13.40;59.19;101237.59;5159012;28;20917;-47
2022/05/25 01:54:29;;;;;;;10.52;2.85;;;;;;;13.29;59.47;101217.47;5157108;28;20409;-46
2022/05/25 01:57:07;;;;;;;7.90;3.28;;;;;;;13.35;59.36;101238.91;5157160;28;20426;-48
2022/05/25 01:59:39;;;;;;;10.35;3.50;;;;;;;13.28;59.28;101232.53;5161314;28;20548;-49
2022/05/25 02:05:09;;;;;;;8.98;3.63;;;;;;;13.05;59.39;101207.53;5147224;28;20800;-49
2022/05/25 02:08:08;;;;;;;6.85;3.20;;;;;;;13.29;59.47;101238.69;5157520;28;20526;-50
2022/05/25 02:10:52;;;;;;;7.20;3.33;;;;;;;13.25;59.56;101232.03;5153390;28;20468;-52
2022/05/25 02:13:37;;;;;;;6.95;3.22;;;;;;;13.20;59.54;101235.13;5152973;28;20466;-51
2022/05/25 02:16:25;;;;;;;8.18;3.72;;;;;;;13.22;59.51;101243.75;5156103;28;20437;-51
2022/05/25 02:19:07;;;;;;;8.27;3.17;;;;;;;13.18;59.59;101237.09;5158085;28;20919;-45
2022/05/25 02:21:47;;;;;;;7.90;3.80;;;;;;;13.00;59.73;101223.06;5147799;28;20606;-48
2022/05/25 02:24:29;;;;;;;8.82;3.70;;;;;;;13.14;59.76;101243.72;5161049;28;20505;-47
2022/05/25 02:27:10;;;;;;;8.23;3.20;;;;;;;13.13;59.86;101250.84;5152101;28;21036;-48
2022/05/25 02:29:47;;;;;;;12.48;4.05;;;;;;;13.11;59.95;101255.47;5162430;28;20452;-47
2022/05/25 02:32:24;;;;;;;6.80;3.38;;;;;;;12.99;59.92;101232.03;5157013;28;20417;-48
2022/05/25 02:35:00;;;;;;;14.50;4.17;;;;;;;12.62;59.94;101177.44;5159543;28;20500;-48
2022/05/25 02:37:35;;;;;;;6.90;3.80;;;;;;;12.98;59.98;101251.56;5156255;28;20429;-47
2022/05/25 02:40:11;;;;;;;9.40;3.67;;;;;;;13.02;59.90;101252.91;5155710;28;20433;-45
2022/05/25 02:42:44;;;;;;;9.52;4.18;;;;;;;13.00;60.17;101244.28;5158658;28;20422;-46
2022/05/25 02:45:16;;;;;;;8.18;4.13;;;;;;;13.01;59.87;101251.25;5157834;28;20986;-49
2022/05/25 02:47:50;;;;;;;7.20;4.13;;;;;;;12.91;60.17;101240.72;5159524;28;20506;-50
2022/05/25 02:50:24;;;;;;;9.27;4.63;;;;;;;12.89;60.24;101235.59;5156430;28;20684;-50
2022/05/25 02:52:57;;;;;;;8.68;4.70;;;;;;;13.00;60.23;101247.75;5157628;28;20810;-46
2022/05/25 02:55:31;;;;;;;13.27;5.03;;;;;;;12.97;60.27;101249.88;5156387;28;20431;-47
2022/05/25 02:58:03;;;;;;;8.38;5.18;;;;;;;12.99;60.40;101269.13;5156398;28;20413;-50
2022/05/25 03:00:35;;;;;;;13.30;5.27;;;;;;;12.86;60.69;101235.91;5159454;28;20500;-45
2022/05/25 03:03:08;;;;;;;10.90;4.72;;;;;;;12.93;60.46;101250.19;5154414;28;20437;-47
2022/05/25 03:05:43;;;;;;;12.55;5.18;;;;;;;12.97;60.51;101252.53;5153257;28;20809;-47
2022/05/25 03:08:16;;;;;;;13.73;6.00;;;;;;;12.79;60.49;101237.53;5155258;28;20432;-49
2022/05/25 03:10:48;;;;;;;9.73;5.90;;;;;;;12.88;60.52;101249.84;5155883;28;20460;-46
2022/05/25 03:13:20;;;;;;;11.98;5.82;;;;;;;12.83;60.63;101256.59;5153968;28;20511;-48
2022/05/25 03:15:53;;;;;;;10.85;5.90;;;;;;;12.93;60.71;101260.81;5153698;28;20409;-45
2022/05/25 03:18:26;;;;;;;11.90;5.90;;;;;;;12.93;60.67;101276.72;5156329;28;20442;-45
2022/05/25 03:21:00;;;;;;;16.60;6.45;;;;;;;12.87;60.71;101261.41;5157772;28;20419;-47
2022/05/25 03:23:32;;;;;;;12.73;6.22;;;;;;;12.85;60.79;101263.41;5153261;28;20431;-47
2022/05/25 03:26:05;;;;;;;8.65;6.47;;;;;;;12.91;60.95;101268.09;5153862;28;20921;-49
2022/05/25 03:28:38;;;;;;;13.80;7.22;;;;;;;12.56;60.92;101210.66;5152584;28;20424;-49
2022/05/25 03:31:10;;;;;;;14.38;8.07;;;;;;;12.83;61.05;101270.69;5149016;28;20448;-44
2022/05/25 03:33:43;;;;;;;12.57;7.22;;;;;;;12.77;61.16;101259.88;5155241;28;20447;-47
2022/05/25 03:36:17;;;;;;;13.57;6.65;;;;;;;12.85;61.14;101275.81;5138990;28;20437;-49
2022/05/25 03:38:49;;;;;;;12.07;6.45;;;;;;;12.87;61.36;101282.63;5137917;28;21100;-47
2022/05/25 03:41:23;;;;;;;9.65;6.00;;;;;;;12.63;61.26;101253.28;5147480;28;20420;-48
2022/05/25 03:43:55;;;;;;;11.35;6.85;;;;;;;12.81;61.29;101272.63;5157000;28;20424;-46
2022/05/25 03:46:28;;;;;;;13.23;6.63;;;;;;;12.83;61.06;101283.09;5158035;28;20452;-45
2022/05/25 03:49:00;;;;;;;11.57;6.80;;;;;;;12.82;61.29;101274.31;5154236;28;21412;-46
2022/05/25 03:51:34;;;;;;;12.57;7.10;;;;;;;12.86;61.47;101280.16;5159231;28;20523;-45
2022/05/25 03:54:07;;;;;;;9.98;6.72;;;;;;;12.87;61.58;101282.63;5158203;28;20528;-48
2022/05/25 03:56:39;;;;;;;14.05;6.43;;;;;;;12.87;61.54;101281.81;5157892;28;20428;-47
2022/05/25 03:59:12;;;;;;;10.80;6.38;;;;;;;12.90;61.53;101286.78;5158589;28;20442;-46
2022/05/25 04:01:47;;;;;;;15.97;7.03;;;;;;;12.91;61.48;101286.66;5156799;28;20427;-45
2022/05/25 04:04:19;;;;;;;8.90;7.30;;;;;;;12.88;61.57;101294.91;5154571;28;21397;-48
2022/05/25 04:06:53;;;;;;;12.82;8.10;;;;;;;12.85;61.70;101281.97;5155243;28;20508;-46
2022/05/25 04:09:26;;;;;;;13.13;7.97;;;;;;;12.70;61.79;101264.94;5159034;28;20687;-47
2022/05/25 04:11:59;;;;;;;20.90;8.70;;;;;;;12.89;61.78;101293.91;5159230;28;20484;-46
2022/05/25 04:14:32;;;;;;;12.88;7.00;;;;;;;12.84;61.78;101274.97;5144320;28;20416;-47
2022/05/25 04:17:05;;;;;;;8.80;6.18;;;;;;;12.94;61.80;101293.44;5158790;28;20813;-50
2022/05/25 04:19:38;;;;;;;7.72;5.20;;;;;;;13.00;61.75;101284.03;5157961;28;20432;-47
2022/05/25 04:22:12;;;;;;;9.10;5.18;;;;;;;13.02;61.94;101290.03;5158786;28;20925;-49
2022/05/25 04:24:45;;;;;;;9.60;5.15;;;;;;;13.02;61.90;101287.38;5177957;28;21061;-47
2022/05/25 04:27:17;;;;;;;9.23;5.13;;;;;;;13.02;62.08;101295.34;5175994;28;21045;-45
2022/05/25 04:29:50;;;;;;;9.98;4.68;;;;;;;12.92;61.89;101266.28;5176005;28;21191;-50
2022/05/25 04:32:22;;;;;;;7.15;4.30;;;;;;;13.15;61.90;101290.44;5175345;28;20425;-47
2022/05/25 04:34:57;;;;;;;11.40;4.95;;;;;;;13.21;62.08;101289.00;5176874;28;20839;-46
2022/05/25 04:40:26;;;;;;;9.27;4.20;;;;;;;13.27;61.96;101285.75;5180174;28;20414;-49
2022/05/25 04:43:01;;;;;;;9.70;4.07;;;;;;;13.36;62.00;101293.59;5178909;28;20437;-55
2022/05/25 04:45:34;;;;;;;9.68;4.78;;;;;;;13.41;62.02;101282.53;5178077;28;20878;-47
2022/05/25 04:48:07;;;;;;;11.90;5.32;;;;;;;13.36;62.04;101271.56;5182299;28;20848;-47
2022/05/25 04:50:43;;;;;;;9.57;5.57;;;;;;;13.44;62.00;101268.09;5177534;28;20473;-48
2022/05/25 04:53:36;;;;;;;17.17;5.73;;;;;;;13.50;62.06;101270.97;5183209;28;20435;-49
2022/05/25 04:58:58;;;;;;;15.60;6.65;;;;;;;13.60;62.21;101276.16;5181380;28;20403;-51
2022/05/25 05:01:32;;;;;;;11.05;6.25;;;;;;;13.64;62.03;101269.53;5176025;28;20423;-49
2022/05/25 05:04:05;;;;;;;11.38;7.13;;;;;;;13.73;62.04;101275.72;5176877;28;20438;-46
2022/05/25 05:06:38;;;;;;;11.02;6.43;;;;;;;13.81;62.15;101284.56;5173640;28;20473;-45
2022/05/25 05:09:11;;;;;;;17.15;7.90;;;;;;;13.76;61.82;101262.97;5177584;28;20422;-48
2022/05/25 05:11:45;;;;;;;15.57;8.55;;;;;;;13.96;61.89;101292.72;5176101;28;20433;-48
2022/05/25 05:14:18;;;;;;;20.92;8.60;;;;;;;14.25;61.56;101289.66;5179235;28;20527;-47
2022/05/25 05:16:57;;;;;;;18.80;8.57;;;;;;;15.56;60.37;101276.31;5177334;28;20890;-48
2022/05/25 05:19:30;;;;;;;11.25;6.43;;;;;;;17.25;58.65;101271.03;5181580;28;20425;-48
2022/05/25 05:22:03;;;;;;;13.10;5.97;;;;;;;18.92;57.20;101263.06;5178830;28;20407;-50
2022/05/25 05:24:37;;;;;;;8.50;4.50;;;;;;;20.23;56.05;101268.50;5182265;28;20430;-47
2022/05/25 05:27:11;;;;;;;13.07;5.13;;;;;;;21.23;55.23;101271.22;5186352;28;20423;-47
2022/05/25 05:29:43;;;;;;;13.50;5.50;;;;;;;22.10;54.06;101278.78;5185518;28;20426;-51
2022/05/25 05:32:15;;;;;;;12.85;5.00;;;;;;;22.78;53.05;101274.63;5186529;28;20994;-51
2022/05/25 05:34:48;;;;;;;13.15;5.40;;;;;;;23.43;52.11;101277.75;5187655;28;20422;-51
2022/05/25 05:37:27;;;;;;;9.80;4.65;;;;;;;24.20;50.89;101276.41;5183300;28;20466;-53
2022/05/25 05:40:03;;;;;;;14.80;5.65;;;;;;;25.01;49.52;101277.63;5183475;28;20514;-56
2022/05/25 05:42:39;;;;;;;10.07;5.83;;;;;;;25.50;48.52;101276.31;5174884;28;20568;-52
2022/05/25 05:45:15;;;;;;;8.63;5.50;;;;;;;26.11;47.75;101292.16;5181005;28;20609;-55
2022/05/25 05:47:52;;;;;;;10.20;5.68;;;;;;;26.34;46.98;101283.09;5189249;28;20516;-54
2022/05/25 05:50:26;;;;;;;13.65;6.18;;;;;;;26.61;46.36;101303.09;5188590;28;20549;-55
2022/05/25 05:52:58;;;;;;;12.68;6.13;;;;;;;26.93;45.76;101299.81;5191138;28;20499;-56
2022/05/25 05:55:33;;;;;;;11.48;5.70;;;;;;;27.17;45.06;101294.22;5147516;28;20480;-51
2022/05/25 05:58:05;;;;;;;12.05;5.70;;;;;;;26.99;45.11;101301.53;5191040;28;20852;-54
2022/05/25 06:00:39;;;;;;;13.00;6.25;;;;;;;26.62;44.86;101298.50;5192550;28;20890;-55
2022/05/25 06:03:12;;;;;;;17.05;7.35;;;;;;;26.28;45.38;101303.03;5175668;28;20432;-58
2022/05/25 06:05:44;;;;;;;17.25;6.90;;;;;;;26.05;45.43;101299.38;5160512;28;20413;-56
2022/05/25 06:08:21;;;;;;;15.35;6.80;;;;;;;25.85;45.21;101309.78;5172798;28;20455;-56
2022/05/25 06:11:00;;;;;;;16.95;8.65;;;;;;;25.03;45.62;101291.75;5171510;28;20404;-50
2022/05/25 06:13:32;;;;;;;20.97;9.30;;;;;;;24.28;46.24;101295.81;5162128;28;20517;-53
2022/05/25 06:21:45;;;;;;;17.77;10.00;;;;;;;23.36;46.66;101314.72;5168460;28;21013;-53
2022/05/25 06:24:19;;;;;;;21.95;10.13;;;;;;;23.19;46.69;101313.66;5119959;28;20436;-50
2022/05/25 06:26:53;;;;;;;18.95;10.73;;;;;;;23.01;46.81;101312.59;5136239;28;20410;-50
2022/05/25 06:29:25;;;;;;;16.65;10.48;;;;;;;22.92;47.01;101324.66;5133331;28;20416;-53
2022/05/25 06:32:00;;;;;;;21.33;10.10;;;;;;;22.75;46.93;101326.22;5129985;28;20424;-50
2022/05/25 06:34:32;;;;;;;19.02;10.20;;;;;;;22.59;47.19;101321.38;5127210;28;20416;-49
2022/05/25 06:37:05;;;;;;;18.77;10.45;;;;;;;22.10;47.61;101321.81;5133847;28;20955;-53
2022/05/25 06:39:39;;;;;;;17.98;10.95;;;;;;;21.81;47.90;101317.00;5151524;28;20511;-49
2022/05/25 06:42:13;;;;;;;22.98;11.48;;;;;;;21.58;47.86;101323.66;5130133;28;20495;-53
2022/05/25 06:44:48;;;;;;;18.47;10.87;;;;;;;21.37;48.00;101318.56;5134641;28;20436;-51
2022/05/25 06:47:21;;;;;;;19.20;10.35;;;;;;;21.21;48.29;101324.31;5133805;28;20873;-53
2022/05/25 06:49:55;;;;;;;19.30;10.52;;;;;;;20.77;48.59;101315.84;5132078;28;20422;-53
2022/05/25 06:52:27;;;;;;;20.13;10.00;;;;;;;20.47;48.80;101334.13;5136098;28;20434;-51
2022/05/25 06:54:59;;;;;;;17.65;9.82;;;;;;;20.07;49.21;101336.72;5129871;28;20924;-51
2022/05/25 06:57:34;;;;;;;22.83;9.73;;;;;;;20.05;49.33;101333.41;5129717;28;20847;-51
2022/05/25 07:00:09;;;;;;;17.38;10.68;;;;;;;20.08;49.31;101343.72;5134325;28;20489;-49
2022/05/25 07:02:41;;;;;;;22.10;10.52;;;;;;;20.08;49.45;101348.28;5138044;28;20744;-48
2022/05/25 07:05:14;;;;;;;16.73;9.90;;;;;;;20.51;49.10;101346.13;5133895;28;20438;-50
2022/05/25 07:07:46;;;;;;;20.70;9.00;;;;;;;20.55;48.93;101339.34;5132659;28;20996;-53
2022/05/25 07:10:19;;;;;;;15.55;9.00;;;;;;;20.63;48.82;101349.91;5142159;28;20457;-54
2022/05/25 07:12:53;;;;;;;20.00;10.18;;;;;;;20.80;48.73;101349.53;5134533;28;20505;-52
2022/05/25 07:15:25;;;;;;;19.67;10.73;;;;;;;20.80;48.71;101369.13;5134726;28;20410;-50
2022/05/25 07:17:58;;;;;;;22.05;10.77;;;;;;;20.65;48.61;101329.03;5129881;28;20470;-51
2022/05/25 07:20:30;;;;;;;17.63;10.18;;;;;;;20.90;48.81;101352.63;5132633;28;20451;-44
2022/05/25 07:23:04;;;;;;;17.20;9.18;;;;;;;21.07;48.56;101359.25;5146802;28;20537;-51
2022/05/25 07:25:36;;;;;;;13.05;7.65;;;;;;;21.46;48.33;101362.97;5176940;28;20453;-52
2022/05/25 07:28:10;;;;;;;16.88;7.38;;;;;;;21.91;47.97;101344.25;5165633;28;20957;-49
2022/05/25 07:30:43;;;;;;;20.15;6.70;;;;;;;22.19;47.46;101348.50;5178253;28;20518;-50
2022/05/25 07:33:15;;;;;;;13.98;6.13;;;;;;;21.95;47.50;101336.56;5175588;28;20496;-50
2022/05/25 07:35:48;;;;;;;15.82;7.45;;;;;;;21.61;47.79;101342.03;5178217;28;20780;-50
2022/05/25 07:38:20;;;;;;;14.82;6.90;;;;;;;21.42;47.83;101357.19;5174738;28;24384;-48
2022/05/25 07:40:53;;;;;;;12.80;7.82;;;;;;;21.31;47.93;101354.28;5174279;28;20916;-51
2022/05/25 07:43:30;;;;;;;21.17;8.50;;;;;;;20.89;47.89;101305.34;5170513;28;20416;-51
2022/05/25 07:46:03;;;;;;;17.80;7.75;;;;;;;21.23;47.80;101366.06;5157616;28;20413;-45
2022/05/25 07:48:36;;;;;;;15.30;7.15;;;;;;;21.10;47.93;101366.06;5185971;28;20868;-53
2022/05/25 07:51:09;;;;;;;15.77;7.65;;;;;;;21.14;48.02;101360.06;5189273;28;20430;-50
2022/05/25 07:56:37;;;;;;;15.27;6.95;;;;;;;21.44;47.55;101391.09;5170261;28;20482;-49
2022/05/25 07:59:13;;;;;;;13.85;7.32;;;;;;;21.44;47.56;101370.41;5166572;28;20431;-53
2022/05/25 08:07:48;;;;;;;10.27;6.50;;;;;;;21.30;47.63;101356.13;5105803;28;20542;-52
2022/05/25 08:10:25;;;;;;;10.25;6.20;;;;;;;21.56;47.71;101354.50;5153784;28;20500;-52
2022/05/25 08:13:00;;;;;;;8.98;5.32;;;;;;;21.95;47.31;101369.66;5170454;28;20479;-52
2022/05/25 08:15:34;;;;;;;12.10;6.13;;;;;;;22.24;46.94;101354.09;5163903;28;20420;-51
2022/05/25 08:18:07;;;;;;;12.80;5.97;;;;;;;22.64;46.77;101359.22;5166402;28;20908;-52
2022/05/25 08:20:40;;;;;;;10.65;5.57;;;;;;;23.13;46.25;101361.16;5161652;28;20520;-52
2022/05/25 08:23:17;;;;;;;13.05;5.72;;;;;;;23.22;45.85;101340.16;5174669;28;20422;-50
2022/05/25 08:25:49;;;;;;;13.23;5.70;;;;;;;22.83;45.84;101327.84;5169225;28;20473;-51
2022/05/25 08:28:22;;;;;;;11.80;4.72;;;;;;;22.58;46.25;101350.16;5188136;28;20946;-52
2022/05/25 08:30:56;;;;;;;14.95;4.93;;;;;;;22.42;46.38;101356.88;5185104;28;20427;-51
2022/05/25 08:33:29;;;;;;;9.55;4.70;;;;;;;22.10;46.22;101359.47;5187648;28;20486;-49
2022/05/25 08:36:01;;;;;;;13.77;5.00;;;;;;;21.80;46.46;101352.97;5181504;28;20407;-49
2022/05/25 08:38:34;;;;;;;12.43;5.15;;;;;;;21.58;46.52;101358.59;5167664;28;20407;-55
2022/05/25 08:41:06;;;;;;;15.50;5.80;;;;;;;21.38;46.49;101365.88;5185521;28;20419;-48
2022/05/25 08:43:46;;;;;;;11.10;4.82;;;;;;;20.99;46.79;101359.44;5186245;28;20472;-51
2022/05/25 08:46:23;;;;;;;14.90;5.00;;;;;;;20.65;46.96;101342.47;5186984;28;20997;-49
2022/05/25 08:48:57;;;;;;;12.52;3.97;;;;;;;20.66;47.00;101379.03;5186673;28;20441;-48
2022/05/25 08:51:30;;;;;;;12.82;4.43;;;;;;;20.62;46.90;101367.03;5187759;28;20930;-48
2022/05/25 08:54:03;;;;;;;9.40;3.70;;;;;;;20.68;46.57;101381.50;5182869;28;20468;-48
2022/05/25 08:56:42;;;;;;;6.30;1.65;;;;;;;20.63;46.64;101367.88;5187503;28;20465;-47
2022/05/25 08:59:21;;;;;;;10.30;1.75;;;;;;;20.73;46.30;101366.44;5187665;28;20503;-53
2022/05/25 09:01:59;;;;;;;7.85;1.92;;;;;;;20.94;46.08;101372.69;5186770;28;20865;-54
2022/05/25 09:04:39;;;;;;;8.43;2.08;;;;;;;21.10;45.60;101369.56;5185566;28;20411;-56
2022/05/25 09:07:18;;;;;;;7.43;1.48;;;;;;;21.43;45.11;101384.91;5168151;28;20419;-57
2022/05/25 09:09:53;;;;;;;7.07;1.50;;;;;;;21.76;44.89;101379.44;5184803;28;20857;-53
2022/05/25 09:12:34;;;;;;;2.63;1.23;;;;;;;21.94;44.51;101376.09;5185386;28;20795;-49
2022/05/25 09:15:12;;;;;;;6.10;1.30;;;;;;;22.30;44.12;101380.97;5172037;28;20748;-50
2022/05/25 09:17:49;;;;;;;5.85;1.42;;;;;;;22.52;43.73;101392.22;5172502;28;20417;-47
2022/05/25 09:20:31;;;;;;;3.72;1.60;;;;;;;22.66;43.43;101386.75;5177110;28;20411;-51
2022/05/25 09:23:04;;;;;;;10.70;1.45;;;;;;;22.86;43.06;101390.16;5130059;28;20867;-48
2022/05/25 09:25:39;;;;;;;4.40;0.80;;;;;;;23.02;42.60;101381.56;5162567;28;20414;-48
2022/05/25 09:28:19;;;;;;;6.00;1.50;;;;;;;23.07;42.34;101386.28;5155604;28;20838;-51
2022/05/25 09:30:56;;;;;;;5.50;1.30;;;;;;;22.95;42.25;101394.28;5153341;28;20987;-48
2022/05/25 09:33:36;;;;;;;3.85;0.90;;;;;;;23.00;42.12;101397.13;5156939;28;20418;-52
2022/05/25 09:36:14;;;;;;;4.63;1.10;;;;;;;23.02;41.96;101378.06;5159270;28;20431;-53
2022/05/25 09:38:53;;;;;;;5.80;1.25;;;;;;;23.23;41.69;101395.72;5157652;28;20463;-51
2022/05/25 09:41:29;;;;;;;3.70;1.00;;;;;;;23.43;40.97;101385.56;5166158;28;20403;-49
2022/05/25 09:44:06;;;;;;;6.85;1.05;;;;;;;23.42;40.69;101400.09;5167617;28;20417;-48
2022/05/25 09:46:44;;;;;;;3.47;0.50;;;;;;;23.24;40.56;101381.19;5148131;28;20441;-48
2022/05/25 09:49:35;;;;;;;7.00;0.90;;;;;;;23.42;40.29;101402.78;5163334;28;20452;-52
2022/05/25 09:52:15;;;;;;;4.07;1.00;;;;;;;23.34;39.91;101386.91;5157678;28;20901;-52
2022/05/25 09:54:52;;;;;;;4.25;1.10;;;;;;;22.99;40.09;101387.41;5114063;28;20454;-50
2022/05/25 09:57:31;;;;;;;6.20;1.20;;;;;;;22.81;40.25;101408.00;5140309;28;20909;-48
2022/05/25 10:00:10;;;;;;;2.97;0.70;;;;;;;22.85;39.99;101412.72;5150891;28;20396;-49
2022/05/25 10:02:49;;;;;;;5.07;0.80;;;;;;;22.90;39.57;101421.00;5176461;28;20511;-49
2022/05/25 10:05:27;;;;;;;4.18;0.80;;;;;;;22.94;39.46;101408.75;5170763;28;20420;-50
2022/05/25 10:08:15;;;;;;;6.57;1.20;;;;;;;22.92;39.26;101410.84;5158867;28;20438;-49
2022/05/25 10:10:56;;;;;;;3.10;0.77;;;;;;;22.94;39.22;101432.19;5130833;28;20422;-48
2022/05/25 10:13:37;;;;;;;3.28;0.70;;;;;;;22.94;39.20;101440.25;5167098;28;20420;-48
2022/05/25 10:16:26;;;;;;;4.55;0.82;;;;;;;23.01;38.91;101427.59;5149900;28;20523;-51
2022/05/25 10:19:02;;;;;;;6.53;1.02;;;;;;;22.62;38.87;101377.47;5132122;28;20539;-47
2022/05/25 10:21:40;;;;;;;3.47;1.10;;;;;;;22.87;39.06;101421.44;5161595;28;20894;-50
2022/05/25 10:24:17;;;;;;;2.85;0.93;;;;;;;22.93;38.86;101444.81;5155365;28;20479;-46
2022/05/25 10:26:52;;;;;;;3.38;0.85;;;;;;;22.85;38.63;101430.75;5155968;28;20429;-50
2022/05/25 10:38:32;;;;;;;6.00;1.20;;;;;;;22.50;38.62;101418.53;5129369;28;20475;-48
2022/05/25 10:41:37;;;;;;;3.70;0.75;;;;;;;22.53;38.41;101415.41;5142241;28;20899;-48
2022/05/25 10:44:10;;;;;;;8.50;1.30;;;;;;;22.54;38.46;101425.13;5138745;28;20565;-52
2022/05/25 10:46:51;;;;;;;3.67;0.90;;;;;;;22.46;38.36;101413.81;5165816;28;20415;-51
2022/05/25 10:49:31;;;;;;;3.17;0.90;;;;;;;22.37;38.23;101396.25;5153669;28;20471;-54
2022/05/25 10:52:09;;;;;;;10.23;1.30;;;;;;;22.62;37.82;101420.56;5170509;28;20411;-50
2022/05/25 10:54:47;;;;;;;10.20;1.30;;;;;;;22.83;37.55;101406.75;5158547;28;20481;-56
2022/05/25 10:57:48;;;;;;;6.82;1.10;;;;;;;22.94;37.32;101410.63;5134374;28;20429;-47
2022/05/25 11:00:27;;;;;;;3.22;0.85;;;;;;;23.07;37.37;101417.78;5142622;28;20553;-49
2022/05/25 11:03:51;;;;;;;3.58;0.82;;;;;;;23.02;37.38;101421.97;5156567;28;20462;-49
2022/05/25 11:06:52;;;;;;;2.15;0.90;;;;;;;22.97;37.23;101429.06;5166406;28;20877;-49
2022/05/25 11:09:50;;;;;;;6.97;1.13;;;;;;;22.76;37.16;101400.56;5145864;28;20536;-48
2022/05/25 11:12:29;;;;;;;5.20;0.93;;;;;;;23.11;36.94;101424.41;5163946;28;20522;-48
2022/05/25 11:15:13;;;;;;;10.95;1.45;;;;;;;23.27;36.69;101429.25;5116462;28;20475;-51
2022/05/25 11:18:05;;;;;;;5.38;1.15;;;;;;;22.95;36.98;101394.28;5164523;28;20611;-50
2022/05/25 11:20:45;;;;;;;3.88;0.98;;;;;;;23.32;36.83;101426.75;5150616;28;21023;-51
2022/05/25 11:23:53;;;;;;;4.80;0.90;;;;;;;23.25;36.92;101432.16;5152657;28;20825;-46
2022/05/25 11:26:57;;;;;;;5.50;1.35;;;;;;;23.21;36.95;101438.22;5131007;28;20482;-50
2022/05/25 11:29:59;;;;;;;4.13;0.73;;;;;;;23.08;37.36;101432.94;5137869;28;20562;-50
2022/05/25 11:32:47;;;;;;;7.30;1.15;;;;;;;23.09;37.29;101442.66;5125785;28;20598;-47
2022/05/25 11:35:42;;;;;;;7.50;1.30;;;;;;;23.15;37.35;101429.13;5125332;28;20440;-49
2022/05/25 11:38:34;;;;;;;2.78;0.70;;;;;;;22.92;37.37;101388.47;5120708;28;20469;-51
2022/05/25 11:41:24;;;;;;;4.00;1.10;;;;;;;23.16;37.36;101421.88;5114494;28;20581;-46
2022/05/25 11:44:36;;;;;;;5.22;1.13;;;;;;;22.66;37.48;101341.00;5134867;28;20481;-46
2022/05/25 11:47:25;;;;;;;3.10;0.90;;;;;;;23.21;37.47;101436.34;5121492;28;20438;-49
2022/05/25 11:50:13;;;;;;;6.28;0.90;;;;;;;23.20;37.13;101426.63;5124078;28;20493;-49
2022/05/25 11:53:31;;;;;;;7.05;1.23;;;;;;;23.13;37.17;101427.69;5134182;28;20985;-50
2022/05/25 11:56:35;;;;;;;3.35;1.02;;;;;;;23.02;37.06;101426.53;5115063;28;20418;-46
2022/05/25 11:59:44;;;;;;;2.83;0.77;;;;;;;22.90;37.09;101414.78;5134179;28;20911;-49
2022/05/25 12:02:38;;;;;;;8.60;1.42;;;;;;;22.94;37.18;101424.09;5129590;28;20991;-50
2022/05/25 12:05:24;;;;;;;9.63;1.10;;;;;;;22.91;37.17;101397.56;5121586;28;20439;-51
2022/05/25 12:08:31;;;;;;;8.38;1.45;;;;;;;22.94;37.21;101416.03;5127755;28;20792;-51
2022/05/25 12:11:11;;;;;;;4.80;1.05;;;;;;;22.79;37.21;101408.22;5115133;28;20960;-50
2022/05/25 12:13:49;;;;;;;5.95;0.77;;;;;;;22.74;37.34;101416.13;5124080;28;20439;-48
2022/05/25 12:16:28;;;;;;;5.63;0.88;;;;;;;22.96;36.87;101411.25;5141463;28;21059;-50
2022/05/25 12:19:06;;;;;;;7.35;1.20;;;;;;;23.12;36.74;101407.19;5143372;28;20426;-51
2022/05/25 12:21:42;;;;;;;5.22;0.90;;;;;;;22.96;36.73;101389.69;5132369;28;20410;-51
2022/05/25 12:24:20;;;;;;;4.55;1.02;;;;;;;23.25;36.67;101431.34;5166207;28;20427;-51
2022/05/25 12:26:53;;;;;;;7.60;1.10;;;;;;;23.26;36.72;101430.31;5169508;28;20417;-48
2022/05/25 12:29:31;;;;;;;4.85;1.02;;;;;;;23.23;36.71;101423.50;5172725;28;20432;-51
2022/05/25 12:32:09;;;;;;;7.27;1.20;;;;;;;23.09;36.83;101434.56;5168332;28;20454;-47
2022/05/25 12:34:43;;;;;;;7.75;1.55;;;;;;;22.79;37.02;101400.97;5174654;28;20506;-50
2022/05/25 12:37:27;;;;;;;5.45;1.10;;;;;;;22.91;37.15;101436.09;5174575;28;21757;-51
2022/05/25 12:40:03;;;;;;;11.73;1.90;;;;;;;22.73;37.32;101433.31;5172312;28;20434;-51
2022/05/25 12:42:42;;;;;;;3.22;1.05;;;;;;;22.74;37.34;101424.22;5171381;28;20429;-49
2022/05/25 12:48:58;;;;;;;6.80;1.40;;;;;;;22.54;37.62;101430.50;5118524;28;20427;-51
2022/05/25 12:51:38;;;;;;;6.30;1.33;;;;;;;22.64;37.33;101434.59;5171857;28;20597;-48
2022/05/25 12:54:22;;;;;;;6.82;1.40;;;;;;;22.03;37.41;101331.78;5161849;28;20426;-51